Decoded Metar for DTNH ( in ) (IATA:) | Meteo·Mobile Aviation Weather
aviador You're here:

DTNH Decoded Metar

in
Report Time2018-11-16 08:00:00
UTC Time2018-11-16 08:07:48
Flight Rules vfr VFR
Wind360° at 07 kt
W.Decomp.*RWY 27: 7.0 kt RCW
Visibility9999 m
Phenomena:N/A
Clouds:Broken 050 Hf
Expected CloudBase > 800 ft AGL from Temp-Dew spread
Ceiling5,000 ft
Temp18°C
Dew Point16°C (88% RH)
AAT17.5°C
QNH1017 hPa
Raw Report
METAR DTNH 160800Z 36007KT 9999 BKN050 18/16 Q1017=

Extra information for DTNH:More info

Social comments